sensor_id;sensor_type;location;lat;lon;timestamp;P1;durP1;ratioP1;P2;durP2;ratioP2
773;SDS011;370;48.810;9.150;2023-02-21T00:00:11;1.85;;;0.60;;
773;SDS011;370;48.810;9.150;2023-02-21T00:02:56;0.55;;;0.52;;
773;SDS011;370;48.810;9.150;2023-02-21T00:05:41;0.77;;;0.68;;
773;SDS011;370;48.810;9.150;2023-02-21T00:08:25;0.75;;;0.73;;
773;SDS011;370;48.810;9.150;2023-02-21T00:11:10;1.75;;;0.77;;
773;SDS011;370;48.810;9.150;2023-02-21T00:13:54;0.43;;;0.38;;
773;SDS011;370;48.810;9.150;2023-02-21T00:16:38;3.10;;;0.57;;
773;SDS011;370;48.810;9.150;2023-02-21T00:19:22;0.63;;;0.60;;
773;SDS011;370;48.810;9.150;2023-02-21T00:22:08;0.90;;;0.80;;
773;SDS011;370;48.810;9.150;2023-02-21T00:24:52;0.70;;;0.60;;
773;SDS011;370;48.810;9.150;2023-02-21T00:27:36;0.50;;;0.50;;
773;SDS011;370;48.810;9.150;2023-02-21T00:30:20;0.93;;;0.73;;
773;SDS011;370;48.810;9.150;2023-02-21T00:33:04;5.97;;;0.95;;
773;SDS011;370;48.810;9.150;2023-02-21T00:35:48;1.52;;;1.20;;
773;SDS011;370;48.810;9.150;2023-02-21T00:38:34;1.75;;;0.80;;
773;SDS011;370;48.810;9.150;2023-02-21T00:41:20;1.42;;;0.60;;
773;SDS011;370;48.810;9.150;2023-02-21T00:44:04;1.10;;;1.00;;
773;SDS011;370;48.810;9.150;2023-02-21T00:46:48;0.40;;;0.40;;
773;SDS011;370;48.810;9.150;2023-02-21T00:49:33;0.70;;;0.60;;
773;SDS011;370;48.810;9.150;2023-02-21T00:52:17;0.60;;;0.50;;
773;SDS011;370;48.810;9.150;2023-02-21T00:55:02;1.20;;;0.70;;
773;SDS011;370;48.810;9.150;2023-02-21T00:57:47;3.05;;;0.80;;
773;SDS011;370;48.810;9.150;2023-02-21T01:00:31;2.25;;;1.10;;
773;SDS011;370;48.810;9.150;2023-02-21T01:03:15;1.05;;;0.98;;
773;SDS011;370;48.810;9.150;2023-02-21T01:05:59;0.75;;;0.65;;
773;SDS011;370;48.810;9.150;2023-02-21T01:08:44;0.70;;;0.60;;
773;SDS011;370;48.810;9.150;2023-02-21T01:11:31;0.43;;;0.40;;
773;SDS011;370;48.810;9.150;2023-02-21T01:14:16;1.00;;;0.60;;
773;SDS011;370;48.810;9.150;2023-02-21T01:17:00;0.73;;;0.47;;
773;SDS011;370;48.810;9.150;2023-02-21T01:19:44;2.95;;;0.60;;
773;SDS011;370;48.810;9.150;2023-02-21T01:22:28;1.23;;;1.08;;
773;SDS011;370;48.810;9.150;2023-02-21T01:25:13;2.55;;;1.45;;
773;SDS011;370;48.810;9.150;2023-02-21T01:27:59;0.60;;;0.50;;
773;SDS011;370;48.810;9.150;2023-02-21T01:30:43;0.60;;;0.52;;
773;SDS011;370;48.810;9.150;2023-02-21T01:33:28;1.55;;;0.85;;
773;SDS011;370;48.810;9.150;2023-02-21T01:36:12;0.45;;;0.40;;
773;SDS011;370;48.810;9.150;2023-02-21T01:38:56;2.45;;;1.40;;
773;SDS011;370;48.810;9.150;2023-02-21T01:41:40;2.75;;;1.20;;
773;SDS011;370;48.810;9.150;2023-02-21T01:44:30;1.02;;;0.85;;
773;SDS011;370;48.810;9.150;2023-02-21T01:47:18;0.70;;;0.50;;
773;SDS011;370;48.810;9.150;2023-02-21T01:50:04;7.60;;;1.27;;
773;SDS011;370;48.810;9.150;2023-02-21T01:52:51;0.82;;;0.70;;
773;SDS011;370;48.810;9.150;2023-02-21T01:55:36;2.95;;;1.17;;
773;SDS011;370;48.810;9.150;2023-02-21T01:58:23;0.90;;;0.85;;
773;SDS011;370;48.810;9.150;2023-02-21T02:01:13;2.05;;;0.82;;
773;SDS011;370;48.810;9.150;2023-02-21T02:04:06;6.40;;;1.65;;
773;SDS011;370;48.810;9.150;2023-02-21T02:06:50;1.35;;;0.60;;
773;SDS011;370;48.810;9.150;2023-02-21T02:09:34;3.55;;;1.00;;
773;SDS011;370;48.810;9.150;2023-02-21T02:12:27;0.75;;;0.70;;
773;SDS011;370;48.810;9.150;2023-02-21T02:18:12;2.28;;;0.82;;
773;SDS011;370;48.810;9.150;2023-02-21T02:20:58;1.20;;;0.65;;
773;SDS011;370;48.810;9.150;2023-02-21T02:23:56;5.95;;;1.50;;
773;SDS011;370;48.810;9.150;2023-02-21T02:26:42;0.40;;;0.40;;
773;SDS011;370;48.810;9.150;2023-02-21T02:33:05;0.85;;;0.75;;
773;SDS011;370;48.810;9.150;2023-02-21T02:35:48;0.80;;;0.70;;
773;SDS011;370;48.810;9.150;2023-02-21T02:38:20;10.70;;;1.05;;
773;SDS011;370;48.810;9.150;2023-02-21T02:40:55;1.17;;;0.82;;
773;SDS011;370;48.810;9.150;2023-02-21T02:43:27;1.42;;;0.85;;
773;SDS011;370;48.810;9.150;2023-02-21T02:45:59;1.60;;;1.50;;
773;SDS011;370;48.810;9.150;2023-02-21T02:48:32;1.95;;;0.95;;
773;SDS011;370;48.810;9.150;2023-02-21T02:51:02;2.10;;;1.83;;
773;SDS011;370;48.810;9.150;2023-02-21T02:53:32;1.55;;;0.70;;
773;SDS011;370;48.810;9.150;2023-02-21T02:56:01;1.90;;;1.50;;
773;SDS011;370;48.810;9.150;2023-02-21T02:58:30;2.38;;;0.70;;
773;SDS011;370;48.810;9.150;2023-02-21T03:01:02;1.70;;;1.15;;
773;SDS011;370;48.810;9.150;2023-02-21T03:03:44;1.90;;;1.17;;
773;SDS011;370;48.810;9.150;2023-02-21T03:06:24;2.10;;;1.08;;
773;SDS011;370;48.810;9.150;2023-02-21T03:09:00;1.75;;;0.85;;
773;SDS011;370;48.810;9.150;2023-02-21T03:11:34;1.08;;;0.93;;
773;SDS011;370;48.810;9.150;2023-02-21T03:14:08;2.00;;;0.80;;
773;SDS011;370;48.810;9.150;2023-02-21T03:16:40;1.23;;;0.93;;
773;SDS011;370;48.810;9.150;2023-02-21T03:19:11;0.88;;;0.80;;
773;SDS011;370;48.810;9.150;2023-02-21T03:21:44;1.17;;;0.93;;
773;SDS011;370;48.810;9.150;2023-02-21T03:24:14;2.15;;;1.02;;
773;SDS011;370;48.810;9.150;2023-02-21T03:26:43;0.98;;;0.93;;
773;SDS011;370;48.810;9.150;2023-02-21T03:29:14;2.55;;;0.63;;
773;SDS011;370;48.810;9.150;2023-02-21T03:31:43;2.35;;;0.88;;
773;SDS011;370;48.810;9.150;2023-02-21T03:34:13;1.42;;;1.10;;
773;SDS011;370;48.810;9.150;2023-02-21T03:36:40;0.40;;;0.40;;
773;SDS011;370;48.810;9.150;2023-02-21T03:39:08;0.82;;;0.73;;
773;SDS011;370;48.810;9.150;2023-02-21T03:41:35;0.65;;;0.63;;
773;SDS011;370;48.810;9.150;2023-02-21T03:44:02;1.35;;;0.73;;
773;SDS011;370;48.810;9.150;2023-02-21T03:46:28;7.90;;;0.90;;
773;SDS011;370;48.810;9.150;2023-02-21T03:48:55;0.88;;;0.63;;
773;SDS011;370;48.810;9.150;2023-02-21T03:51:22;0.55;;;0.55;;
773;SDS011;370;48.810;9.150;2023-02-21T03:53:48;0.43;;;0.40;;
773;SDS011;370;48.810;9.150;2023-02-21T03:56:16;0.52;;;0.45;;
773;SDS011;370;48.810;9.150;2023-02-21T03:58:43;0.65;;;0.55;;
773;SDS011;370;48.810;9.150;2023-02-21T04:01:10;2.70;;;1.00;;
773;SDS011;370;48.810;9.150;2023-02-21T04:03:36;4.40;;;1.00;;
773;SDS011;370;48.810;9.150;2023-02-21T04:06:03;0.60;;;0.60;;
773;SDS011;370;48.810;9.150;2023-02-21T04:08:31;0.70;;;0.52;;
773;SDS011;370;48.810;9.150;2023-02-21T04:10:57;2.65;;;2.15;;
773;SDS011;370;48.810;9.150;2023-02-21T04:13:25;2.40;;;1.38;;
773;SDS011;370;48.810;9.150;2023-02-21T04:15:52;0.95;;;0.88;;
773;SDS011;370;48.810;9.150;2023-02-21T04:18:19;1.58;;;0.77;;
773;SDS011;370;48.810;9.150;2023-02-21T04:20:46;2.15;;;0.70;;
773;SDS011;370;48.810;9.150;2023-02-21T04:23:14;1.00;;;0.77;;
773;SDS011;370;48.810;9.150;2023-02-21T04:25:43;0.40;;;0.40;;
773;SDS011;370;48.810;9.150;2023-02-21T04:28:09;9.85;;;1.27;;
773;SDS011;370;48.810;9.150;2023-02-21T04:30:37;4.03;;;1.13;;
773;SDS011;370;48.810;9.150;2023-02-21T04:33:04;0.70;;;0.63;;
773;SDS011;370;48.810;9.150;2023-02-21T04:35:31;0.55;;;0.55;;
773;SDS011;370;48.810;9.150;2023-02-21T04:37:57;1.40;;;0.85;;
773;SDS011;370;48.810;9.150;2023-02-21T04:40:24;0.80;;;0.70;;
773;SDS011;370;48.810;9.150;2023-02-21T04:42:51;4.13;;;0.95;;
773;SDS011;370;48.810;9.150;2023-02-21T04:45:17;0.88;;;0.77;;
773;SDS011;370;48.810;9.150;2023-02-21T04:47:45;4.85;;;1.00;;
773;SDS011;370;48.810;9.150;2023-02-21T04:50:12;0.50;;;0.50;;
773;SDS011;370;48.810;9.150;2023-02-21T04:52:39;1.15;;;0.77;;
773;SDS011;370;48.810;9.150;2023-02-21T04:55:06;1.02;;;0.52;;
773;SDS011;370;48.810;9.150;2023-02-21T04:57:33;1.98;;;1.25;;
773;SDS011;370;48.810;9.150;2023-02-21T05:00:00;1.42;;;1.15;;
773;SDS011;370;48.810;9.150;2023-02-21T05:02:30;6.30;;;3.38;;
773;SDS011;370;48.810;9.150;2023-02-21T05:04:58;2.70;;;1.77;;
773;SDS011;370;48.810;9.150;2023-02-21T05:07:25;2.00;;;1.45;;
773;SDS011;370;48.810;9.150;2023-02-21T05:09:51;0.82;;;0.70;;
773;SDS011;370;48.810;9.150;2023-02-21T05:12:18;0.60;;;0.55;;
773;SDS011;370;48.810;9.150;2023-02-21T05:14:45;1.02;;;1.02;;
773;SDS011;370;48.810;9.150;2023-02-21T05:17:12;2.15;;;0.93;;
773;SDS011;370;48.810;9.150;2023-02-21T05:19:38;2.95;;;1.10;;
773;SDS011;370;48.810;9.150;2023-02-21T05:22:06;15.07;;;1.10;;
773;SDS011;370;48.810;9.150;2023-02-21T05:24:33;6.28;;;1.40;;
773;SDS011;370;48.810;9.150;2023-02-21T05:27:00;1.92;;;0.73;;
773;SDS011;370;48.810;9.150;2023-02-21T05:29:26;1.15;;;0.70;;
773;SDS011;370;48.810;9.150;2023-02-21T05:31:53;0.88;;;0.75;;
773;SDS011;370;48.810;9.150;2023-02-21T05:34:20;2.35;;;1.15;;
773;SDS011;370;48.810;9.150;2023-02-21T05:36:47;1.08;;;0.95;;
773;SDS011;370;48.810;9.150;2023-02-21T05:39:15;0.60;;;0.60;;
773;SDS011;370;48.810;9.150;2023-02-21T05:41:45;4.05;;;2.25;;
773;SDS011;370;48.810;9.150;2023-02-21T05:44:13;13.77;;;0.90;;
773;SDS011;370;48.810;9.150;2023-02-21T05:46:39;1.95;;;1.08;;
773;SDS011;370;48.810;9.150;2023-02-21T05:49:07;0.60;;;0.55;;
773;SDS011;370;48.810;9.150;2023-02-21T05:51:34;1.33;;;1.23;;
773;SDS011;370;48.810;9.150;2023-02-21T05:54:02;1.42;;;0.85;;
773;SDS011;370;48.810;9.150;2023-02-21T05:56:30;0.82;;;0.80;;
773;SDS011;370;48.810;9.150;2023-02-21T05:59:02;1.02;;;0.73;;
773;SDS011;370;48.810;9.150;2023-02-21T06:01:29;2.15;;;0.80;;
773;SDS011;370;48.810;9.150;2023-02-21T06:03:56;2.95;;;1.30;;
773;SDS011;370;48.810;9.150;2023-02-21T06:06:22;1.58;;;0.90;;
773;SDS011;370;48.810;9.150;2023-02-21T06:08:49;2.25;;;1.00;;
773;SDS011;370;48.810;9.150;2023-02-21T06:11:20;9.07;;;1.73;;
773;SDS011;370;48.810;9.150;2023-02-21T06:13:51;1.77;;;0.93;;
773;SDS011;370;48.810;9.150;2023-02-21T06:16:18;1.67;;;0.90;;
773;SDS011;370;48.810;9.150;2023-02-21T06:18:48;0.40;;;0.40;;
773;SDS011;370;48.810;9.150;2023-02-21T06:21:15;0.90;;;0.80;;
773;SDS011;370;48.810;9.150;2023-02-21T06:23:42;0.40;;;0.40;;
773;SDS011;370;48.810;9.150;2023-02-21T06:26:10;3.90;;;0.80;;
773;SDS011;370;48.810;9.150;2023-02-21T06:28:39;0.88;;;0.80;;
773;SDS011;370;48.810;9.150;2023-02-21T06:31:08;0.88;;;0.77;;
773;SDS011;370;48.810;9.150;2023-02-21T06:33:35;3.47;;;1.35;;
773;SDS011;370;48.810;9.150;2023-02-21T06:36:02;1.08;;;0.55;;
773;SDS011;370;48.810;9.150;2023-02-21T06:38:30;1.77;;;0.65;;
773;SDS011;370;48.810;9.150;2023-02-21T06:40:57;0.95;;;0.70;;
773;SDS011;370;48.810;9.150;2023-02-21T06:43:23;1.00;;;0.90;;
773;SDS011;370;48.810;9.150;2023-02-21T06:45:51;7.65;;;1.08;;
773;SDS011;370;48.810;9.150;2023-02-21T06:48:19;1.88;;;0.90;;
773;SDS011;370;48.810;9.150;2023-02-21T06:50:46;1.77;;;0.93;;
773;SDS011;370;48.810;9.150;2023-02-21T06:53:13;3.05;;;0.95;;
773;SDS011;370;48.810;9.150;2023-02-21T06:55:39;0.65;;;0.65;;
773;SDS011;370;48.810;9.150;2023-02-21T06:58:06;7.80;;;0.85;;
773;SDS011;370;48.810;9.150;2023-02-21T07:00:33;2.75;;;0.85;;
773;SDS011;370;48.810;9.150;2023-02-21T07:03:00;0.70;;;0.68;;
773;SDS011;370;48.810;9.150;2023-02-21T07:05:28;1.48;;;1.35;;
773;SDS011;370;48.810;9.150;2023-02-21T07:07:58;1.13;;;1.08;;
773;SDS011;370;48.810;9.150;2023-02-21T07:10:25;2.97;;;1.20;;
773;SDS011;370;48.810;9.150;2023-02-21T07:12:53;4.93;;;1.55;;
773;SDS011;370;48.810;9.150;2023-02-21T07:15:20;2.80;;;1.20;;
773;SDS011;370;48.810;9.150;2023-02-21T07:17:49;0.68;;;0.57;;
773;SDS011;370;48.810;9.150;2023-02-21T07:20:16;1.38;;;1.30;;
773;SDS011;370;48.810;9.150;2023-02-21T07:22:45;10.70;;;2.28;;
773;SDS011;370;48.810;9.150;2023-02-21T07:25:13;16.52;;;2.05;;
773;SDS011;370;48.810;9.150;2023-02-21T07:27:40;3.97;;;1.52;;
773;SDS011;370;48.810;9.150;2023-02-21T07:30:07;11.63;;;2.67;;
773;SDS011;370;48.810;9.150;2023-02-21T07:32:35;4.22;;;2.28;;
773;SDS011;370;48.810;9.150;2023-02-21T07:35:01;3.70;;;1.90;;
773;SDS011;370;48.810;9.150;2023-02-21T07:37:28;3.58;;;2.22;;
773;SDS011;370;48.810;9.150;2023-02-21T07:39:56;4.90;;;2.25;;
773;SDS011;370;48.810;9.150;2023-02-21T07:42:23;6.57;;;2.88;;
773;SDS011;370;48.810;9.150;2023-02-21T07:44:53;5.85;;;2.70;;
773;SDS011;370;48.810;9.150;2023-02-21T07:47:20;5.95;;;2.65;;
773;SDS011;370;48.810;9.150;2023-02-21T07:49:47;3.63;;;2.10;;
773;SDS011;370;48.810;9.150;2023-02-21T07:52:14;3.55;;;2.30;;
773;SDS011;370;48.810;9.150;2023-02-21T07:54:40;7.75;;;2.97;;
773;SDS011;370;48.810;9.150;2023-02-21T07:57:08;6.30;;;2.47;;
773;SDS011;370;48.810;9.150;2023-02-21T07:59:36;5.93;;;2.90;;
773;SDS011;370;48.810;9.150;2023-02-21T08:02:02;5.05;;;2.70;;
773;SDS011;370;48.810;9.150;2023-02-21T08:04:30;12.73;;;2.65;;
773;SDS011;370;48.810;9.150;2023-02-21T08:06:59;4.47;;;2.90;;
773;SDS011;370;48.810;9.150;2023-02-21T08:09:27;6.53;;;2.60;;
773;SDS011;370;48.810;9.150;2023-02-21T08:11:53;2.55;;;1.90;;
773;SDS011;370;48.810;9.150;2023-02-21T08:14:21;9.93;;;3.30;;
773;SDS011;370;48.810;9.150;2023-02-21T08:16:48;8.80;;;2.72;;
773;SDS011;370;48.810;9.150;2023-02-21T08:19:15;4.88;;;2.88;;
773;SDS011;370;48.810;9.150;2023-02-21T08:21:43;3.40;;;2.40;;
773;SDS011;370;48.810;9.150;2023-02-21T08:24:10;4.32;;;2.22;;
773;SDS011;370;48.810;9.150;2023-02-21T08:26:38;7.05;;;2.35;;
773;SDS011;370;48.810;9.150;2023-02-21T08:29:05;3.08;;;2.08;;
773;SDS011;370;48.810;9.150;2023-02-21T08:31:34;8.27;;;3.30;;
773;SDS011;370;48.810;9.150;2023-02-21T08:34:02;10.40;;;2.60;;
773;SDS011;370;48.810;9.150;2023-02-21T08:36:29;5.95;;;2.83;;
773;SDS011;370;48.810;9.150;2023-02-21T08:38:57;6.87;;;3.13;;
773;SDS011;370;48.810;9.150;2023-02-21T08:41:23;7.50;;;3.17;;
773;SDS011;370;48.810;9.150;2023-02-21T08:43:50;8.17;;;3.17;;
773;SDS011;370;48.810;9.150;2023-02-21T08:46:17;7.43;;;2.30;;
773;SDS011;370;48.810;9.150;2023-02-21T08:48:45;15.90;;;3.47;;
773;SDS011;370;48.810;9.150;2023-02-21T08:51:12;9.77;;;4.30;;
773;SDS011;370;48.810;9.150;2023-02-21T08:53:38;10.80;;;3.70;;
773;SDS011;370;48.810;9.150;2023-02-21T08:56:05;5.47;;;3.67;;
773;SDS011;370;48.810;9.150;2023-02-21T08:58:32;7.30;;;3.90;;
773;SDS011;370;48.810;9.150;2023-02-21T09:00:59;6.60;;;3.47;;
773;SDS011;370;48.810;9.150;2023-02-21T09:03:25;4.67;;;3.40;;
773;SDS011;370;48.810;9.150;2023-02-21T09:05:53;7.60;;;3.93;;
773;SDS011;370;48.810;9.150;2023-02-21T09:08:20;10.50;;;3.87;;
773;SDS011;370;48.810;9.150;2023-02-21T09:10:50;8.00;;;4.03;;
773;SDS011;370;48.810;9.150;2023-02-21T09:13:20;6.30;;;3.83;;
773;SDS011;370;48.810;9.150;2023-02-21T09:15:47;23.53;;;3.60;;
773;SDS011;370;48.810;9.150;2023-02-21T09:18:14;7.07;;;3.80;;
773;SDS011;370;48.810;9.150;2023-02-21T09:20:41;10.43;;;3.17;;
773;SDS011;370;48.810;9.150;2023-02-21T09:23:11;6.40;;;3.87;;
773;SDS011;370;48.810;9.150;2023-02-21T09:25:39;14.67;;;4.40;;
773;SDS011;370;48.810;9.150;2023-02-21T09:28:06;15.53;;;4.67;;
773;SDS011;370;48.810;9.150;2023-02-21T09:30:32;8.57;;;3.90;;
773;SDS011;370;48.810;9.150;2023-02-21T09:33:02;5.03;;;3.83;;
773;SDS011;370;48.810;9.150;2023-02-21T09:35:28;13.43;;;4.17;;
773;SDS011;370;48.810;9.150;2023-02-21T09:37:55;7.80;;;4.30;;
773;SDS011;370;48.810;9.150;2023-02-21T09:40:26;10.33;;;4.40;;
773;SDS011;370;48.810;9.150;2023-02-21T09:42:59;10.83;;;4.77;;
773;SDS011;370;48.810;9.150;2023-02-21T09:45:29;7.10;;;4.10;;
773;SDS011;370;48.810;9.150;2023-02-21T09:47:59;8.93;;;4.43;;
773;SDS011;370;48.810;9.150;2023-02-21T09:50:31;12.50;;;3.90;;
773;SDS011;370;48.810;9.150;2023-02-21T09:53:02;8.97;;;4.43;;
773;SDS011;370;48.810;9.150;2023-02-21T09:55:32;10.43;;;4.30;;
773;SDS011;370;48.810;9.150;2023-02-21T09:58:01;5.97;;;3.90;;
773;SDS011;370;48.810;9.150;2023-02-21T10:00:28;8.20;;;4.47;;
773;SDS011;370;48.810;9.150;2023-02-21T10:03:02;5.67;;;3.47;;
773;SDS011;370;48.810;9.150;2023-02-21T10:05:41;9.50;;;4.00;;
773;SDS011;370;48.810;9.150;2023-02-21T10:08:13;6.40;;;4.23;;
773;SDS011;370;48.810;9.150;2023-02-21T10:10:49;6.80;;;4.47;;
773;SDS011;370;48.810;9.150;2023-02-21T10:13:22;5.50;;;3.40;;
773;SDS011;370;48.810;9.150;2023-02-21T10:19:23;11.07;;;4.23;;
773;SDS011;370;48.810;9.150;2023-02-21T10:21:55;7.20;;;3.93;;
773;SDS011;370;48.810;9.150;2023-02-21T10:24:24;6.23;;;5.27;;
773;SDS011;370;48.810;9.150;2023-02-21T10:26:56;6.30;;;3.10;;
773;SDS011;370;48.810;9.150;2023-02-21T10:29:25;5.70;;;3.03;;
773;SDS011;370;48.810;9.150;2023-02-21T10:32:00;4.40;;;2.83;;
773;SDS011;370;48.810;9.150;2023-02-21T10:34:28;11.57;;;6.20;;
773;SDS011;370;48.810;9.150;2023-02-21T10:36:57;4.70;;;2.90;;
773;SDS011;370;48.810;9.150;2023-02-21T10:39:29;3.97;;;2.80;;
773;SDS011;370;48.810;9.150;2023-02-21T10:42:03;4.70;;;2.70;;
773;SDS011;370;48.810;9.150;2023-02-21T10:44:31;4.30;;;2.87;;
773;SDS011;370;48.810;9.150;2023-02-21T10:47:01;6.57;;;3.67;;
773;SDS011;370;48.810;9.150;2023-02-21T10:49:32;3.80;;;3.00;;
773;SDS011;370;48.810;9.150;2023-02-21T10:52:11;5.47;;;3.63;;
773;SDS011;370;48.810;9.150;2023-02-21T10:54:41;4.50;;;3.40;;
773;SDS011;370;48.810;9.150;2023-02-21T10:57:25;14.03;;;3.93;;
773;SDS011;370;48.810;9.150;2023-02-21T10:59:53;6.90;;;3.90;;
773;SDS011;370;48.810;9.150;2023-02-21T11:02:25;6.03;;;4.30;;
773;SDS011;370;48.810;9.150;2023-02-21T11:04:55;4.57;;;3.87;;
773;SDS011;370;48.810;9.150;2023-02-21T11:07:35;6.17;;;3.60;;
773;SDS011;370;48.810;9.150;2023-02-21T11:10:02;6.40;;;3.67;;
773;SDS011;370;48.810;9.150;2023-02-21T11:13:03;14.40;;;3.87;;
773;SDS011;370;48.810;9.150;2023-02-21T11:15:32;12.67;;;3.83;;
773;SDS011;370;48.810;9.150;2023-02-21T11:18:03;5.27;;;4.10;;
773;SDS011;370;48.810;9.150;2023-02-21T11:20:32;4.70;;;3.50;;
773;SDS011;370;48.810;9.150;2023-02-21T11:22:58;7.10;;;3.87;;
773;SDS011;370;48.810;9.150;2023-02-21T11:25:26;7.40;;;4.17;;
773;SDS011;370;48.810;9.150;2023-02-21T11:27:57;6.67;;;4.03;;
773;SDS011;370;48.810;9.150;2023-02-21T11:30:28;6.20;;;4.07;;
773;SDS011;370;48.810;9.150;2023-02-21T11:32:57;7.93;;;3.47;;
773;SDS011;370;48.810;9.150;2023-02-21T11:35:26;8.67;;;3.63;;
773;SDS011;370;48.810;9.150;2023-02-21T11:37:55;6.80;;;4.20;;
773;SDS011;370;48.810;9.150;2023-02-21T11:40:25;11.00;;;4.73;;
773;SDS011;370;48.810;9.150;2023-02-21T11:43:17;6.50;;;4.20;;
773;SDS011;370;48.810;9.150;2023-02-21T11:45:51;7.80;;;3.87;;
773;SDS011;370;48.810;9.150;2023-02-21T11:48:30;4.60;;;3.63;;
773;SDS011;370;48.810;9.150;2023-02-21T11:51:02;12.90;;;4.07;;
773;SDS011;370;48.810;9.150;2023-02-21T11:53:35;4.43;;;3.17;;
773;SDS011;370;48.810;9.150;2023-02-21T11:56:07;8.97;;;4.00;;
773;SDS011;370;48.810;9.150;2023-02-21T11:58:43;4.07;;;3.13;;
773;SDS011;370;48.810;9.150;2023-02-21T12:01:25;14.33;;;3.87;;
773;SDS011;370;48.810;9.150;2023-02-21T12:04:00;4.10;;;3.33;;
773;SDS011;370;48.810;9.150;2023-02-21T12:06:38;4.40;;;3.70;;
773;SDS011;370;48.810;9.150;2023-02-21T12:09:09;4.23;;;3.40;;
773;SDS011;370;48.810;9.150;2023-02-21T12:11:44;10.47;;;3.63;;
773;SDS011;370;48.810;9.150;2023-02-21T12:14:23;4.50;;;3.40;;
773;SDS011;370;48.810;9.150;2023-02-21T12:17:10;5.60;;;2.90;;
773;SDS011;370;48.810;9.150;2023-02-21T12:19:55;4.43;;;3.30;;
773;SDS011;370;48.810;9.150;2023-02-21T12:22:40;3.20;;;3.00;;
773;SDS011;370;48.810;9.150;2023-02-21T12:25:19;6.50;;;2.90;;
773;SDS011;370;48.810;9.150;2023-02-21T12:27:53;3.87;;;3.20;;
773;SDS011;370;48.810;9.150;2023-02-21T12:30:25;5.63;;;3.10;;
773;SDS011;370;48.810;9.150;2023-02-21T12:33:05;10.13;;;3.70;;
773;SDS011;370;48.810;9.150;2023-02-21T12:35:47;5.20;;;3.40;;
773;SDS011;370;48.810;9.150;2023-02-21T12:38:31;3.70;;;3.37;;
773;SDS011;370;48.810;9.150;2023-02-21T12:41:07;7.43;;;3.07;;
773;SDS011;370;48.810;9.150;2023-02-21T12:43:48;4.13;;;3.20;;
773;SDS011;370;48.810;9.150;2023-02-21T12:46:21;4.07;;;2.60;;
773;SDS011;370;48.810;9.150;2023-02-21T12:48:55;3.90;;;2.80;;
773;SDS011;370;48.810;9.150;2023-02-21T12:51:30;5.40;;;3.63;;
773;SDS011;370;48.810;9.150;2023-02-21T12:54:08;3.23;;;3.00;;
773;SDS011;370;48.810;9.150;2023-02-21T12:56:41;3.60;;;3.30;;
773;SDS011;370;48.810;9.150;2023-02-21T12:59:13;4.80;;;2.87;;
773;SDS011;370;48.810;9.150;2023-02-21T13:01:46;3.87;;;2.77;;
773;SDS011;370;48.810;9.150;2023-02-21T13:04:19;12.50;;;2.77;;
773;SDS011;370;48.810;9.150;2023-02-21T13:06:56;4.00;;;2.77;;
773;SDS011;370;48.810;9.150;2023-02-21T13:09:30;4.07;;;2.60;;
773;SDS011;370;48.810;9.150;2023-02-21T13:12:03;2.73;;;2.30;;
773;SDS011;370;48.810;9.150;2023-02-21T13:14:35;3.03;;;2.27;;
773;SDS011;370;48.810;9.150;2023-02-21T13:17:08;4.00;;;1.90;;
773;SDS011;370;48.810;9.150;2023-02-21T13:19:38;2.37;;;1.87;;
773;SDS011;370;48.810;9.150;2023-02-21T13:25:33;2.20;;;1.53;;
773;SDS011;370;48.810;9.150;2023-02-21T13:28:11;15.53;;;1.63;;
773;SDS011;370;48.810;9.150;2023-02-21T13:30:44;2.70;;;1.43;;
773;SDS011;370;48.810;9.150;2023-02-21T13:33:23;3.60;;;1.57;;
773;SDS011;370;48.810;9.150;2023-02-21T13:35:56;2.13;;;1.63;;
773;SDS011;370;48.810;9.150;2023-02-21T13:38:25;1.40;;;1.33;;
773;SDS011;370;48.810;9.150;2023-02-21T13:41:01;5.30;;;1.43;;
773;SDS011;370;48.810;9.150;2023-02-21T13:43:30;1.80;;;1.33;;
773;SDS011;370;48.810;9.150;2023-02-21T13:51:52;2.78;;;1.33;;
773;SDS011;370;48.810;9.150;2023-02-21T13:54:44;1.30;;;1.20;;
773;SDS011;370;48.810;9.150;2023-02-21T13:57:50;3.00;;;1.20;;
773;SDS011;370;48.810;9.150;2023-02-21T14:00:51;1.70;;;1.20;;
773;SDS011;370;48.810;9.150;2023-02-21T14:03:29;2.30;;;1.00;;
773;SDS011;370;48.810;9.150;2023-02-21T14:08:54;1.80;;;1.27;;
773;SDS011;370;48.810;9.150;2023-02-21T14:11:26;3.07;;;1.73;;
773;SDS011;370;48.810;9.150;2023-02-21T14:13:56;4.50;;;1.20;;
773;SDS011;370;48.810;9.150;2023-02-21T14:16:27;3.90;;;1.20;;
773;SDS011;370;48.810;9.150;2023-02-21T14:18:58;2.10;;;1.40;;
773;SDS011;370;48.810;9.150;2023-02-21T14:21:29;1.80;;;1.20;;
773;SDS011;370;48.810;9.150;2023-02-21T14:24:02;1.63;;;1.30;;
773;SDS011;370;48.810;9.150;2023-02-21T14:26:38;5.60;;;1.47;;
773;SDS011;370;48.810;9.150;2023-02-21T14:29:11;3.43;;;1.73;;
773;SDS011;370;48.810;9.150;2023-02-21T14:31:47;2.53;;;1.50;;
773;SDS011;370;48.810;9.150;2023-02-21T14:34:19;5.83;;;1.10;;
773;SDS011;370;48.810;9.150;2023-02-21T14:36:51;6.77;;;1.27;;
773;SDS011;370;48.810;9.150;2023-02-21T14:39:23;1.45;;;1.45;;
773;SDS011;370;48.810;9.150;2023-02-21T14:41:56;3.30;;;1.23;;
773;SDS011;370;48.810;9.150;2023-02-21T14:44:34;2.33;;;1.50;;
773;SDS011;370;48.810;9.150;2023-02-21T14:47:16;2.13;;;1.20;;
773;SDS011;370;48.810;9.150;2023-02-21T14:53:00;3.17;;;1.30;;
773;SDS011;370;48.810;9.150;2023-02-21T14:55:54;1.13;;;1.03;;
773;SDS011;370;48.810;9.150;2023-02-21T14:58:38;1.37;;;1.17;;
773;SDS011;370;48.810;9.150;2023-02-21T15:01:36;6.95;;;1.25;;
773;SDS011;370;48.810;9.150;2023-02-21T15:04:17;1.80;;;1.10;;
773;SDS011;370;48.810;9.150;2023-02-21T15:06:54;2.33;;;1.48;;
773;SDS011;370;48.810;9.150;2023-02-21T15:09:25;2.65;;;1.35;;
773;SDS011;370;48.810;9.150;2023-02-21T15:11:54;0.98;;;0.88;;
773;SDS011;370;48.810;9.150;2023-02-21T15:14:22;3.85;;;1.63;;
773;SDS011;370;48.810;9.150;2023-02-21T15:16:52;0.97;;;0.87;;
773;SDS011;370;48.810;9.150;2023-02-21T15:19:22;4.65;;;1.10;;
773;SDS011;370;48.810;9.150;2023-02-21T15:22:05;1.40;;;1.20;;
773;SDS011;370;48.810;9.150;2023-02-21T15:24:56;8.50;;;2.15;;
773;SDS011;370;48.810;9.150;2023-02-21T15:27:55;1.10;;;1.05;;
773;SDS011;370;48.810;9.150;2023-02-21T15:30:24;2.25;;;1.75;;
773;SDS011;370;48.810;9.150;2023-02-21T15:32:55;0.90;;;0.80;;
773;SDS011;370;48.810;9.150;2023-02-21T15:35:24;1.30;;;1.20;;
773;SDS011;370;48.810;9.150;2023-02-21T15:37:55;3.72;;;1.65;;
773;SDS011;370;48.810;9.150;2023-02-21T15:40:23;3.70;;;1.63;;
773;SDS011;370;48.810;9.150;2023-02-21T15:42:51;1.25;;;1.05;;
773;SDS011;370;48.810;9.150;2023-02-21T15:45:21;3.90;;;1.52;;
773;SDS011;370;48.810;9.150;2023-02-21T15:47:52;1.48;;;1.40;;
773;SDS011;370;48.810;9.150;2023-02-21T15:50:23;2.63;;;1.25;;
773;SDS011;370;48.810;9.150;2023-02-21T15:52:56;1.75;;;1.20;;
773;SDS011;370;48.810;9.150;2023-02-21T15:55:39;2.28;;;1.20;;
773;SDS011;370;48.810;9.150;2023-02-21T15:58:13;5.80;;;1.35;;
773;SDS011;370;48.810;9.150;2023-02-21T16:00:42;3.13;;;1.35;;
773;SDS011;370;48.810;9.150;2023-02-21T16:03:26;3.38;;;1.40;;
773;SDS011;370;48.810;9.150;2023-02-21T16:06:08;8.80;;;1.10;;
773;SDS011;370;48.810;9.150;2023-02-21T16:08:51;8.52;;;1.52;;
773;SDS011;370;48.810;9.150;2023-02-21T16:11:23;2.15;;;1.42;;
773;SDS011;370;48.810;9.150;2023-02-21T16:13:52;1.60;;;1.30;;
773;SDS011;370;48.810;9.150;2023-02-21T16:16:19;1.08;;;0.98;;
773;SDS011;370;48.810;9.150;2023-02-21T16:18:53;3.63;;;2.00;;
773;SDS011;370;48.810;9.150;2023-02-21T16:21:22;1.70;;;1.20;;
773;SDS011;370;48.810;9.150;2023-02-21T16:23:51;2.03;;;1.25;;
773;SDS011;370;48.810;9.150;2023-02-21T16:26:19;9.20;;;1.40;;
773;SDS011;370;48.810;9.150;2023-02-21T16:28:52;1.40;;;0.90;;
773;SDS011;370;48.810;9.150;2023-02-21T16:31:26;1.65;;;1.38;;
773;SDS011;370;48.810;9.150;2023-02-21T16:33:55;5.28;;;1.15;;
773;SDS011;370;48.810;9.150;2023-02-21T16:36:23;3.10;;;1.00;;
773;SDS011;370;48.810;9.150;2023-02-21T16:38:51;3.92;;;2.25;;
773;SDS011;370;48.810;9.150;2023-02-21T16:41:19;5.22;;;2.75;;
773;SDS011;370;48.810;9.150;2023-02-21T16:43:46;2.25;;;1.63;;
773;SDS011;370;48.810;9.150;2023-02-21T16:46:14;5.13;;;1.75;;